Time;durP1;ratioP1;P1;durP2;ratioP2;P2;SDS_P1;SDS_P2;PMS_P1;PMS_P2;Temp;Humidity;BMP_temperature;BMP_pressure;BME280_temperature;BME280_humidity;BME280_pressure;Samples;Min_cycle;Max_cycle;Signal;HPM_P1;HPM_P2
2021/12/14 00:00:00;;;;;;;23.67;19.60;;;7.80;99.90;;;;;;4981880;28;20453;-52
2021/12/14 00:02:29;;;;;;;24.80;18.33;;;7.70;99.90;;;;;;4987168;28;20452;-52
2021/12/14 00:04:58;;;;;;;25.47;17.97;;;7.80;99.90;;;;;;4988345;28;20487;-53
2021/12/14 00:07:25;;;;;;;21.97;17.70;;;7.70;99.90;;;;;;4991353;28;20469;-52
2021/12/14 00:10:00;;;;;;;24.93;18.50;;;7.80;99.90;;;;;;4987617;28;20480;-53
2021/12/14 00:12:36;;;;;;;24.87;18.20;;;7.80;99.90;;;;;;4990168;28;20989;-53
2021/12/14 00:15:09;;;;;;;22.20;17.33;;;7.80;99.90;;;;;;4987236;28;20482;-52
2021/12/14 00:17:42;;;;;;;19.97;17.20;;;7.80;99.90;;;;;;4988086;28;21067;-52
2021/12/14 00:20:15;;;;;;;26.37;16.90;;;7.70;99.90;;;;;;4984930;28;20836;-53
2021/12/14 00:25:29;;;;;;;21.13;17.90;;;7.70;99.90;;;;;;4991484;28;20444;-54
2021/12/14 00:27:58;;;;;;;20.10;16.70;;;7.70;99.90;;;;;;4987973;28;20522;-52
2021/12/14 00:30:25;;;;;;;26.10;16.23;;;7.70;99.90;;;;;;4989483;28;20593;-52
2021/12/14 00:32:53;;;;;;;23.63;17.90;;;7.70;99.90;;;;;;4990146;28;20970;-52
2021/12/14 00:35:20;;;;;;;22.03;17.80;;;7.70;99.90;;;;;;4989292;28;20850;-54
2021/12/14 00:37:51;;;;;;;23.90;19.27;;;7.70;99.90;;;;;;4990124;28;20492;-52
2021/12/14 00:40:22;;;;;;;20.83;17.80;;;7.70;99.90;;;;;;4981974;28;20538;-52
2021/12/14 00:42:49;;;;;;;21.00;16.63;;;7.50;99.90;;;;;;4987627;28;21005;-53
2021/12/14 00:45:17;;;;;;;24.73;18.60;;;7.50;99.90;;;;;;4995954;28;20449;-52
2021/12/14 00:47:44;;;;;;;21.40;18.00;;;7.60;99.90;;;;;;4989424;28;20519;-52
2021/12/14 00:50:12;;;;;;;18.20;16.17;;;7.60;99.90;;;;;;4988373;28;20520;-53
2021/12/14 00:52:41;;;;;;;23.80;16.30;;;7.50;99.90;;;;;;4991438;28;20471;-52
2021/12/14 00:55:10;;;;;;;20.03;16.93;;;7.50;99.90;;;;;;4993271;28;20950;-52
2021/12/14 00:57:37;;;;;;;21.03;16.47;;;7.50;99.90;;;;;;4992195;28;20480;-53
2021/12/14 01:00:09;;;;;;;17.87;15.80;;;7.50;99.90;;;;;;4990459;28;20492;-53
2021/12/14 01:02:36;;;;;;;20.30;16.33;;;7.40;99.90;;;;;;4991700;28;21195;-53
2021/12/14 01:05:07;;;;;;;20.00;15.50;;;7.50;99.90;;;;;;4993750;28;20478;-52
2021/12/14 01:07:35;;;;;;;22.10;16.20;;;7.40;99.90;;;;;;4993519;28;20492;-52
2021/12/14 01:10:13;;;;;;;22.23;17.50;;;7.40;99.90;;;;;;4988760;28;20489;-53
2021/12/14 01:12:45;;;;;;;20.87;16.30;;;7.50;99.90;;;;;;4991532;28;20452;-53
2021/12/14 01:15:26;;;;;;;21.20;16.63;;;7.50;99.90;;;;;;4993144;28;20473;-52
2021/12/14 01:18:02;;;;;;;21.33;17.07;;;7.50;99.90;;;;;;4994547;28;20887;-52
2021/12/14 01:20:37;;;;;;;21.10;16.47;;;7.50;99.90;;;;;;4990908;28;20460;-52
2021/12/14 01:23:15;;;;;;;20.63;16.23;;;7.50;99.90;;;;;;4989426;28;20464;-53
2021/12/14 01:25:43;;;;;;;20.57;16.93;;;7.50;99.90;;;;;;4994057;28;20452;-51
2021/12/14 01:28:13;;;;;;;20.70;16.90;;;7.50;99.90;;;;;;4992552;28;22606;-52
2021/12/14 01:30:53;;;;;;;21.00;16.27;;;7.50;99.90;;;;;;4986585;28;20485;-52
2021/12/14 01:33:22;;;;;;;19.57;16.40;;;7.50;99.90;;;;;;4986436;28;20803;-52
2021/12/14 01:35:49;;;;;;;18.93;15.90;;;7.50;99.90;;;;;;4991660;28;20456;-53
2021/12/14 01:38:31;;;;;;;20.67;16.20;;;7.50;99.90;;;;;;4993810;28;20480;-53
2021/12/14 01:41:02;;;;;;;20.27;16.00;;;7.50;99.90;;;;;;4985070;28;20461;-54
2021/12/14 01:43:34;;;;;;;15.67;14.00;;;7.40;99.90;;;;;;4987398;28;20590;-52
2021/12/14 01:46:05;;;;;;;19.70;16.20;;;7.40;99.90;;;;;;4991393;28;20577;-53
2021/12/14 01:48:32;;;;;;;18.67;15.63;;;7.40;99.90;;;;;;4989765;28;20465;-53
2021/12/14 01:51:03;;;;;;;23.17;15.40;;;7.30;99.90;;;;;;4992841;28;20582;-52
2021/12/14 01:53:31;;;;;;;17.87;14.50;;;7.30;99.90;;;;;;4985366;28;20484;-54
2021/12/14 01:56:05;;;;;;;19.07;16.33;;;7.30;99.90;;;;;;4987030;28;20989;-53
2021/12/14 01:58:36;;;;;;;18.93;15.03;;;7.30;99.90;;;;;;4991614;28;20480;-52
2021/12/14 02:01:15;;;;;;;20.13;16.00;;;7.40;99.90;;;;;;4992969;28;20441;-52
2021/12/14 02:03:47;;;;;;;18.07;15.60;;;7.40;99.90;;;;;;4990817;28;20472;-52
2021/12/14 02:06:17;;;;;;;16.40;13.50;;;7.40;99.90;;;;;;4988828;28;20488;-53
2021/12/14 02:08:45;;;;;;;18.40;14.90;;;7.40;99.90;;;;;;4991848;28;20473;-53
2021/12/14 02:11:12;;;;;;;22.43;17.43;;;7.30;99.90;;;;;;4991900;28;20512;-53
2021/12/14 02:13:43;;;;;;;21.97;16.20;;;7.30;99.90;;;;;;4993254;28;20864;-54
2021/12/14 02:19:33;;;;;;;20.37;15.80;;;7.40;99.90;;;;;;4978920;28;20416;-52
2021/12/14 02:22:03;;;;;;;22.13;15.10;;;7.40;99.90;;;;;;4985712;28;20540;-52
2021/12/14 02:24:32;;;;;;;22.27;14.83;;;7.40;99.90;;;;;;4992929;28;20453;-52
2021/12/14 02:27:00;;;;;;;18.40;15.30;;;7.40;99.90;;;;;;4991462;28;20567;-54
2021/12/14 02:29:28;;;;;;;20.30;16.57;;;7.30;99.90;;;;;;4990837;28;20575;-53
2021/12/14 02:32:01;;;;;;;23.13;16.33;;;7.30;99.90;;;;;;4990699;28;20679;-52
2021/12/14 02:34:28;;;;;;;22.53;16.97;;;7.30;99.90;;;;;;4992577;28;20535;-52
2021/12/14 02:36:56;;;;;;;18.90;15.63;;;7.30;99.90;;;;;;4991248;28;20944;-52
2021/12/14 02:39:46;;;;;;;20.37;14.33;;;7.30;99.90;;;;;;4990118;28;20460;-53
2021/12/14 02:42:21;;;;;;;19.83;15.87;;;7.30;99.90;;;;;;4991574;28;20460;-52
2021/12/14 02:44:50;;;;;;;15.60;13.20;;;7.30;99.90;;;;;;4992651;28;20535;-54
2021/12/14 02:47:19;;;;;;;19.20;14.80;;;7.30;99.90;;;;;;4989684;28;20904;-53
2021/12/14 02:49:48;;;;;;;21.87;15.87;;;7.30;99.90;;;;;;4986311;28;20544;-54
2021/12/14 02:52:20;;;;;;;14.60;12.43;;;7.20;99.90;;;;;;4991320;28;20456;-53
2021/12/14 02:54:52;;;;;;;18.10;14.77;;;7.20;99.90;;;;;;4992646;28;20523;-52
2021/12/14 02:57:26;;;;;;;15.97;13.30;;;7.20;99.90;;;;;;4988921;28;20492;-53
2021/12/14 02:59:55;;;;;;;22.60;14.37;;;7.20;99.90;;;;;;4988281;28;20887;-52
2021/12/14 03:02:25;;;;;;;27.20;15.43;;;7.20;99.90;;;;;;4989758;28;20555;-54
2021/12/14 03:04:55;;;;;;;19.10;14.73;;;7.20;99.90;;;;;;4991157;28;20515;-53
2021/12/14 03:07:26;;;;;;;17.70;14.57;;;7.20;99.90;;;;;;4977033;28;20564;-53
2021/12/14 03:09:59;;;;;;;18.03;14.13;;;7.20;99.90;;;;;;4988480;28;20488;-53
2021/12/14 03:12:32;;;;;;;20.97;15.47;;;7.20;99.90;;;;;;4990640;28;20447;-52
2021/12/14 03:15:05;;;;;;;20.20;15.13;;;7.20;99.90;;;;;;4988667;28;20544;-53
2021/12/14 03:17:32;;;;;;;16.70;14.57;;;7.10;99.90;;;;;;4989892;28;20559;-52
2021/12/14 03:20:01;;;;;;;16.47;13.63;;;7.10;99.90;;;;;;4991605;28;20499;-53
2021/12/14 03:22:34;;;;;;;18.30;14.10;;;7.10;99.90;;;;;;4990967;28;20585;-53
2021/12/14 03:25:04;;;;;;;15.60;13.60;;;7.10;99.90;;;;;;4983417;28;20549;-53
2021/12/14 03:27:31;;;;;;;18.60;13.60;;;7.10;99.90;;;;;;4988254;28;20535;-53
2021/12/14 03:29:59;;;;;;;25.07;15.20;;;7.10;99.90;;;;;;4987372;28;20861;-53
2021/12/14 03:32:25;;;;;;;18.53;15.30;;;7.10;99.90;;;;;;4991411;28;20519;-52
2021/12/14 03:34:52;;;;;;;15.60;13.43;;;7.10;99.90;;;;;;4991534;28;21207;-52
2021/12/14 03:37:23;;;;;;;19.10;14.23;;;7.10;99.90;;;;;;4990440;28;20528;-51
2021/12/14 03:39:52;;;;;;;18.43;14.67;;;7.20;99.90;;;;;;4990869;28;20543;-53
2021/12/14 03:42:25;;;;;;;17.50;14.30;;;7.10;99.90;;;;;;4990621;28;21021;-52
2021/12/14 03:44:56;;;;;;;19.40;13.40;;;7.10;99.90;;;;;;4991548;28;20455;-52
2021/12/14 03:47:25;;;;;;;16.00;13.70;;;7.10;99.90;;;;;;4985585;28;20567;-53
2021/12/14 03:49:55;;;;;;;18.87;14.23;;;7.10;99.90;;;;;;4991431;28;20456;-53
2021/12/14 03:52:24;;;;;;;17.10;13.23;;;7.10;99.90;;;;;;4985658;28;20567;-54
2021/12/14 03:54:51;;;;;;;16.73;12.77;;;7.10;99.90;;;;;;4991618;28;20547;-52
2021/12/14 03:57:19;;;;;;;16.43;13.30;;;7.10;99.90;;;;;;4987933;28;20516;-52
2021/12/14 03:59:47;;;;;;;14.43;11.80;;;7.10;99.90;;;;;;4990520;28;20544;-52
2021/12/14 04:02:16;;;;;;;13.70;11.63;;;7.10;99.90;;;;;;4991862;28;20536;-51
2021/12/14 04:04:50;;;;;;;24.37;13.10;;;7.10;99.90;;;;;;4981848;28;20468;-52
2021/12/14 04:07:16;;;;;;;17.10;11.90;;;7.10;99.90;;;;;;4991082;28;21009;-52
2021/12/14 04:09:44;;;;;;;17.83;13.00;;;7.10;99.90;;;;;;4990016;28;20539;-52
2021/12/14 04:12:14;;;;;;;18.13;11.90;;;7.10;99.90;;;;;;4982610;28;20523;-53
2021/12/14 04:14:46;;;;;;;15.70;11.97;;;7.10;99.90;;;;;;4989634;28;20525;-53
2021/12/14 04:17:13;;;;;;;14.70;11.83;;;7.10;99.90;;;;;;4989945;28;20571;-53
2021/12/14 04:19:40;;;;;;;17.70;13.20;;;7.10;99.90;;;;;;4982683;28;20448;-52
2021/12/14 04:22:12;;;;;;;14.37;12.87;;;7.10;22.20;;;;;;4991221;28;20989;-53
2021/12/14 04:24:41;;;;;;;16.73;11.33;;;7.10;23.90;;;;;;4988696;28;20966;-52
2021/12/14 04:27:11;;;;;;;15.50;11.97;;;7.10;30.30;;;;;;4988901;28;20566;-52
2021/12/14 04:29:39;;;;;;;13.40;12.00;;;7.10;32.30;;;;;;4982965;28;20927;-53
2021/12/14 04:32:10;;;;;;;14.00;11.77;;;7.10;35.90;;;;;;4993883;28;21073;-52
2021/12/14 04:34:38;;;;;;;20.13;11.10;;;7.10;39.30;;;;;;4987237;28;20535;-52
2021/12/14 04:37:05;;;;;;;13.93;12.10;;;7.10;42.30;;;;;;4994572;28;20555;-53
2021/12/14 04:39:40;;;;;;;16.27;12.13;;;7.10;45.70;;;;;;4993778;28;20507;-52
2021/12/14 04:53:38;;;;;;;14.23;11.20;;;7.10;83.40;;;;;;4994803;28;20519;-52
2021/12/14 04:56:08;;;;;;;15.20;10.87;;;7.10;85.10;;;;;;4991353;28;20551;-53
2021/12/14 04:58:38;;;;;;;18.13;11.93;;;7.10;88.50;;;;;;4988489;28;20544;-53
2021/12/14 05:01:07;;;;;;;13.00;11.30;;;7.10;90.20;;;;;;4994603;28;20523;-53
2021/12/14 05:03:38;;;;;;;14.50;11.87;;;7.10;92.90;;;;;;4994606;28;20527;-53
2021/12/14 05:06:14;;;;;;;16.80;13.20;;;7.10;92.80;;;;;;4994944;28;20473;-54
2021/12/14 05:11:28;;;;;;;13.23;11.47;;;7.10;99.60;;;;;;4989780;28;20830;-51
2021/12/14 05:14:01;;;;;;;15.47;12.50;;;7.10;99.90;;;;;;4994431;28;20536;-52
2021/12/14 05:16:30;;;;;;;15.50;12.40;;;7.10;99.90;;;;;;4994436;28;20508;-52
2021/12/14 05:19:00;;;;;;;15.90;11.80;;;7.10;99.90;;;;;;4986626;28;20456;-52
2021/12/14 05:21:29;;;;;;;14.90;11.57;;;7.10;99.90;;;;;;4993902;28;21038;-53
2021/12/14 05:23:56;;;;;;;13.20;11.80;;;7.10;99.90;;;;;;4988460;28;20892;-53
2021/12/14 05:26:23;;;;;;;12.53;10.70;;;7.10;99.90;;;;;;4993986;28;20603;-51
2021/12/14 05:28:50;;;;;;;15.47;11.37;;;7.10;99.90;;;;;;4986288;28;20449;-52
2021/12/14 05:31:17;;;;;;;13.30;11.07;;;7.20;99.90;;;;;;4993380;28;20567;-51
2021/12/14 05:33:44;;;;;;;14.97;11.37;;;7.20;99.90;;;;;;4991436;28;20481;-52
2021/12/14 05:36:16;;;;;;;16.73;12.57;;;7.20;99.90;;;;;;4991599;28;20568;-51
2021/12/14 05:38:53;;;;;;;14.87;11.83;;;7.20;99.90;;;;;;4987118;28;21036;-53
2021/12/14 05:44:10;;;;;;;13.90;12.23;;;7.10;99.90;;;;;;4988200;28;20852;-53
2021/12/14 05:46:38;;;;;;;14.23;12.10;;;7.10;99.90;;;;;;4990044;28;20567;-52
2021/12/14 05:49:08;;;;;;;14.80;11.90;;;7.20;99.90;;;;;;4988728;28;20544;-53
2021/12/14 05:51:36;;;;;;;16.03;12.13;;;7.20;99.90;;;;;;4987364;28;20491;-53
2021/12/14 05:54:04;;;;;;;12.80;11.43;;;7.10;99.90;;;;;;4989853;28;20543;-52
2021/12/14 05:56:32;;;;;;;16.83;12.00;;;7.20;99.90;;;;;;4984470;28;20587;-52
2021/12/14 05:59:00;;;;;;;14.70;11.40;;;7.20;99.90;;;;;;4990753;28;20540;-52
2021/12/14 06:01:30;;;;;;;16.30;12.30;;;7.10;99.90;;;;;;4988282;28;20555;-52
2021/12/14 06:03:59;;;;;;;14.50;11.57;;;7.10;99.90;;;;;;4987872;28;20555;-53
2021/12/14 06:06:29;;;;;;;15.27;11.53;;;7.10;99.90;;;;;;4992300;28;20492;-53
2021/12/14 06:09:04;;;;;;;14.50;11.53;;;7.10;99.90;;;;;;4989736;28;20511;-51
2021/12/14 06:11:31;;;;;;;16.80;12.30;;;7.10;99.90;;;;;;4983772;28;20566;-53
2021/12/14 06:13:58;;;;;;;16.57;12.60;;;7.10;99.90;;;;;;4988308;28;20544;-52
2021/12/14 06:16:27;;;;;;;25.70;11.50;;;7.10;99.90;;;;;;4990924;28;20502;-53
2021/12/14 06:18:55;;;;;;;16.83;13.13;;;7.10;99.90;;;;;;4991338;28;20487;-53
2021/12/14 06:21:31;;;;;;;15.90;12.80;;;7.10;99.90;;;;;;4992524;28;20528;-52
2021/12/14 06:24:08;;;;;;;18.07;13.07;;;7.10;99.90;;;;;;4989767;28;20836;-52
2021/12/14 06:26:36;;;;;;;14.73;11.90;;;7.10;99.90;;;;;;4985213;28;20543;-52
2021/12/14 06:29:11;;;;;;;16.37;11.83;;;7.10;99.90;;;;;;4981176;28;20547;-52
2021/12/14 06:31:39;;;;;;;14.73;11.70;;;7.10;99.90;;;;;;4988176;28;20566;-52
2021/12/14 06:34:15;;;;;;;16.13;12.60;;;7.10;99.90;;;;;;4989736;28;20471;-52
2021/12/14 06:37:27;;;;;;;15.97;11.43;;;7.20;99.90;;;;;;4992460;28;20550;-51
2021/12/14 06:40:06;;;;;;;16.33;11.80;;;7.10;99.90;;;;;;4983925;28;20534;-52
2021/12/14 06:42:34;;;;;;;15.60;12.50;;;7.10;99.90;;;;;;4982355;28;20554;-51
2021/12/14 06:45:10;;;;;;;18.83;12.90;;;7.10;99.90;;;;;;4989482;28;20548;-52
2021/12/14 06:47:38;;;;;;;16.23;12.17;;;7.10;99.90;;;;;;4989061;28;20568;-52
2021/12/14 06:50:07;;;;;;;15.83;12.57;;;7.10;99.90;;;;;;4991242;28;20457;-53
2021/12/14 06:52:34;;;;;;;15.73;12.37;;;7.10;99.90;;;;;;4987798;28;20492;-53
2021/12/14 06:55:02;;;;;;;13.80;11.43;;;7.10;99.90;;;;;;4990733;28;20543;-53
2021/12/14 06:57:29;;;;;;;15.07;12.83;;;7.10;99.90;;;;;;4988672;28;20492;-52
2021/12/14 06:59:56;;;;;;;14.57;11.20;;;7.10;99.90;;;;;;4989794;28;20555;-52
2021/12/14 07:02:24;;;;;;;14.93;11.43;;;7.10;99.90;;;;;;4987929;28;20588;-52
2021/12/14 07:04:51;;;;;;;19.43;12.47;;;7.10;99.90;;;;;;4988111;28;20606;-52
2021/12/14 07:07:21;;;;;;;14.27;11.93;;;7.10;99.90;;;;;;4990147;28;20488;-52
2021/12/14 07:09:51;;;;;;;13.97;11.10;;;7.10;99.90;;;;;;4988455;28;20577;-53
2021/12/14 07:12:20;;;;;;;13.17;11.30;;;7.10;99.90;;;;;;4988506;28;21293;-50
2021/12/14 07:15:09;;;;;;;14.33;11.23;;;7.10;99.90;;;;;;4988761;28;20551;-51
2021/12/14 07:17:42;;;;;;;14.20;10.90;;;7.10;99.90;;;;;;4989825;28;20488;-51
2021/12/14 07:20:27;;;;;;;13.47;12.03;;;7.10;99.90;;;;;;4980095;28;20927;-52
2021/12/14 07:22:56;;;;;;;15.17;12.20;;;7.10;99.90;;;;;;4984819;28;21008;-51
2021/12/14 07:25:27;;;;;;;14.13;10.73;;;7.10;99.90;;;;;;4985916;28;20895;-52
2021/12/14 07:27:58;;;;;;;16.80;11.63;;;7.10;99.90;;;;;;4986589;28;20507;-53
2021/12/14 07:30:29;;;;;;;13.07;11.27;;;7.10;99.90;;;;;;4984508;28;20878;-52
2021/12/14 07:33:00;;;;;;;13.13;11.20;;;7.10;99.90;;;;;;4983878;28;20488;-50
2021/12/14 07:35:38;;;;;;;19.60;11.20;;;7.10;99.90;;;;;;4987119;28;20566;-53
2021/12/14 07:38:23;;;;;;;13.47;10.97;;;7.10;99.90;;;;;;4985360;28;20572;-52
2021/12/14 07:40:53;;;;;;;14.60;11.00;;;7.10;99.90;;;;;;4988477;28;20894;-52
2021/12/14 07:43:24;;;;;;;13.33;10.77;;;7.10;99.90;;;;;;4985331;28;20556;-53
2021/12/14 07:45:52;;;;;;;13.87;11.27;;;7.10;99.90;;;;;;4983457;28;20616;-51
2021/12/14 07:48:20;;;;;;;14.17;10.83;;;7.10;99.90;;;;;;4988496;28;20538;-53
2021/12/14 07:50:50;;;;;;;17.23;10.97;;;7.10;99.90;;;;;;4989040;28;20496;-53
2021/12/14 07:53:31;;;;;;;17.10;11.60;;;7.10;99.90;;;;;;4988424;28;20595;-53
2021/12/14 07:55:57;;;;;;;15.97;10.97;;;7.10;99.90;;;;;;4984954;28;20543;-51
2021/12/14 07:58:33;;;;;;;13.00;10.90;;;7.10;99.90;;;;;;4989084;28;20516;-52
2021/12/14 08:01:00;;;;;;;13.00;10.53;;;7.10;99.90;;;;;;4985164;28;20547;-52
2021/12/14 08:03:33;;;;;;;14.30;10.47;;;7.20;99.90;;;;;;4987896;28;20565;-53
2021/12/14 08:06:00;;;;;;;11.87;10.63;;;7.10;99.90;;;;;;4992175;28;20464;-53
2021/12/14 08:08:33;;;;;;;10.70;9.47;;;7.10;99.90;;;;;;4987817;28;20543;-53
2021/12/14 08:11:28;;;;;;;19.37;11.13;;;7.20;99.90;;;;;;4994556;28;20444;-53
2021/12/14 08:13:58;;;;;;;14.57;10.87;;;7.20;99.90;;;;;;4990572;28;20461;-53
2021/12/14 08:16:24;;;;;;;12.70;10.83;;;7.20;99.90;;;;;;4993091;28;20475;-53
2021/12/14 08:18:51;;;;;;;19.10;10.97;;;7.20;99.90;;;;;;4992731;28;20555;-52
2021/12/14 08:21:21;;;;;;;15.60;11.60;;;7.20;99.90;;;;;;4994825;28;20970;-51
2021/12/14 08:23:53;;;;;;;13.83;10.10;;;7.20;99.90;;;;;;4990427;28;20503;-53
2021/12/14 08:26:30;;;;;;;15.60;11.30;;;7.20;99.90;;;;;;4989756;28;20475;-53
2021/12/14 08:29:02;;;;;;;24.80;10.80;;;7.20;99.90;;;;;;4985043;28;20559;-54
2021/12/14 08:31:33;;;;;;;14.27;9.63;;;7.20;99.90;;;;;;4989585;28;20499;-53
2021/12/14 08:34:03;;;;;;;12.00;10.07;;;7.20;99.90;;;;;;4984704;28;20544;-52
2021/12/14 08:36:35;;;;;;;16.10;11.80;;;7.10;99.90;;;;;;4990878;28;21301;-53
2021/12/14 08:39:08;;;;;;;14.27;10.63;;;7.20;99.90;;;;;;4989335;28;20464;-52
2021/12/14 08:41:35;;;;;;;12.47;9.70;;;7.20;99.90;;;;;;4989096;28;20832;-53
2021/12/14 08:44:10;;;;;;;11.90;10.67;;;7.20;99.90;;;;;;4988063;28;20495;-52
2021/12/14 08:46:38;;;;;;;10.70;9.60;;;7.20;99.90;;;;;;4989288;28;20530;-52
2021/12/14 08:49:07;;;;;;;11.20;10.10;;;7.20;99.90;;;;;;4987521;28;20551;-52
2021/12/14 08:51:37;;;;;;;11.60;10.30;;;7.20;99.90;;;;;;4989185;28;20468;-52
2021/12/14 08:54:08;;;;;;;12.60;9.80;;;7.20;99.90;;;;;;4991142;28;21032;-52
2021/12/14 08:56:40;;;;;;;14.70;10.73;;;7.20;99.90;;;;;;4992768;28;20607;-53
2021/12/14 08:59:09;;;;;;;13.60;9.77;;;7.20;99.90;;;;;;4993470;28;20551;-53
2021/12/14 09:01:38;;;;;;;12.33;10.87;;;7.20;99.90;;;;;;4990273;28;20567;-51
2021/12/14 09:04:09;;;;;;;16.13;10.70;;;7.20;99.90;;;;;;4990256;28;20460;-52
2021/12/14 09:06:38;;;;;;;12.33;10.43;;;7.30;99.90;;;;;;4996285;28;20994;-53
2021/12/14 09:09:09;;;;;;;24.33;10.77;;;7.30;99.90;;;;;;4989833;28;20556;-52
2021/12/14 09:11:39;;;;;;;11.13;9.97;;;7.30;99.90;;;;;;4986410;28;20982;-54
2021/12/14 09:14:13;;;;;;;12.70;10.50;;;7.30;99.90;;;;;;4985372;28;20507;-53
2021/12/14 09:16:41;;;;;;;12.13;10.13;;;7.30;99.90;;;;;;4987889;28;21040;-54
2021/12/14 09:19:13;;;;;;;16.80;10.80;;;7.30;99.90;;;;;;4986939;28;20495;-53
2021/12/14 09:21:43;;;;;;;13.13;11.07;;;7.30;99.90;;;;;;4987574;28;20603;-52
2021/12/14 09:24:15;;;;;;;15.53;10.93;;;7.40;99.90;;;;;;4984919;28;20543;-52
2021/12/14 09:26:46;;;;;;;12.23;9.70;;;7.30;99.90;;;;;;4988785;28;20560;-54
2021/12/14 09:29:17;;;;;;;12.63;10.67;;;7.30;99.90;;;;;;4987632;28;20567;-53
2021/12/14 09:31:47;;;;;;;12.23;9.40;;;7.30;99.90;;;;;;4987204;28;20544;-52
2021/12/14 09:34:16;;;;;;;12.80;10.00;;;7.30;99.90;;;;;;4992066;28;20480;-53
2021/12/14 09:36:43;;;;;;;14.13;11.03;;;7.30;99.90;;;;;;4991378;28;20484;-53
2021/12/14 09:39:15;;;;;;;14.47;9.77;;;7.30;99.90;;;;;;4989209;28;20877;-52
2021/12/14 09:41:44;;;;;;;14.07;10.90;;;7.30;99.90;;;;;;4990579;28;20468;-53
2021/12/14 09:44:16;;;;;;;15.77;11.90;;;7.30;99.90;;;;;;4983453;28;20951;-54
2021/12/14 09:46:43;;;;;;;10.40;9.30;;;7.30;99.90;;;;;;4991281;28;20502;-52
2021/12/14 09:49:11;;;;;;;12.93;9.70;;;7.30;99.90;;;;;;4991350;28;20543;-53
2021/12/14 09:51:41;;;;;;;13.83;10.27;;;7.30;99.90;;;;;;4990046;28;20912;-54
2021/12/14 09:54:11;;;;;;;17.40;9.70;;;7.30;99.90;;;;;;4986252;28;20485;-53
2021/12/14 09:56:41;;;;;;;10.57;9.47;;;7.40;99.90;;;;;;4989958;28;20579;-53
2021/12/14 09:59:10;;;;;;;17.13;9.70;;;7.30;99.90;;;;;;4992584;28;20528;-53
2021/12/14 10:01:42;;;;;;;11.40;10.07;;;7.40;99.90;;;;;;4992696;28;20539;-52
2021/12/14 10:04:12;;;;;;;14.00;10.53;;;7.40;72.50;;;;;;4983784;28;20549;-52
2021/12/14 10:06:39;;;;;;;12.27;10.23;;;7.40;23.40;;;;;;4990297;28;20504;-52
2021/12/14 10:09:10;;;;;;;11.17;9.77;;;7.40;25.00;;;;;;4990040;28;20490;-53
2021/12/14 10:11:47;;;;;;;13.20;11.00;;;7.50;26.90;;;;;;4988633;28;20467;-52
2021/12/14 10:14:15;;;;;;;12.60;10.43;;;7.50;42.10;;;;;;4987544;28;20488;-53
2021/12/14 10:16:43;;;;;;;10.93;9.47;;;7.50;47.70;;;;;;4990428;28;21084;-53
2021/12/14 10:19:14;;;;;;;13.53;11.60;;;7.60;48.70;;;;;;4986651;28;20481;-52
2021/12/14 10:21:43;;;;;;;12.17;10.10;;;7.60;47.50;;;;;;4985661;28;20468;-53
2021/12/14 10:24:10;;;;;;;13.90;11.20;;;7.60;50.20;;;;;;4984470;28;21209;-51
2021/12/14 10:26:40;;;;;;;16.00;10.70;;;7.70;54.20;;;;;;4986881;28;20489;-53
2021/12/14 10:29:08;;;;;;;12.97;10.60;;;7.70;61.60;;;;;;4984050;28;20548;-53
2021/12/14 10:31:40;;;;;;;14.57;10.00;;;7.70;60.70;;;;;;4990369;28;20539;-52
2021/12/14 10:34:13;;;;;;;11.43;9.83;;;7.60;74.10;;;;;;4990243;28;20477;-52
2021/12/14 10:36:43;;;;;;;12.27;11.00;;;7.70;70.90;;;;;;4989890;28;20828;-52
2021/12/14 10:39:35;;;;;;;11.43;10.30;;;7.70;76.40;;;;;;4988327;28;20472;-53
2021/12/14 10:44:54;;;;;;;12.90;10.70;;;7.70;86.50;;;;;;4983766;28;20565;-52
2021/12/14 10:47:25;;;;;;;14.70;11.03;;;7.80;78.60;;;;;;4986130;28;21237;-52
2021/12/14 10:49:54;;;;;;;18.83;11.67;;;7.80;75.80;;;;;;4990182;28;20547;-52
2021/12/14 10:52:24;;;;;;;12.40;10.77;;;7.90;83.90;;;;;;4990992;28;20924;-52
2021/12/14 10:54:54;;;;;;;11.43;10.27;;;7.90;85.00;;;;;;4991893;28;20540;-52
2021/12/14 10:57:24;;;;;;;15.00;10.20;;;7.90;83.80;;;;;;5014909;23;21823;-54
2021/12/14 10:59:54;;;;;;;11.53;10.33;;;7.90;96.30;;;;;;5045699;28;20537;-56
2021/12/14 11:02:23;;;;;;;18.13;10.30;;;7.90;94.30;;;;;;5044191;28;21037;-56
2021/12/14 11:04:57;;;;;;;14.53;10.87;;;7.90;92.40;;;;;;5040308;28;21026;-56
2021/12/14 11:07:28;;;;;;;11.97;10.33;;;8.00;92.00;;;;;;5045395;28;20540;-56
2021/12/14 11:10:07;;;;;;;12.07;10.33;;;8.00;99.90;;;;;;5047100;28;20450;-54
2021/12/14 11:12:36;;;;;;;11.77;10.50;;;8.00;99.90;;;;;;5046789;28;20580;-54
2021/12/14 11:15:10;;;;;;;10.83;9.50;;;8.10;99.90;;;;;;5047353;28;21046;-54
2021/12/14 11:20:28;;;;;;;12.17;10.97;;;8.20;99.90;;;;;;5048237;28;20445;-54
2021/12/14 11:23:00;;;;;;;14.07;10.20;;;8.20;99.90;;;;;;5045791;28;20541;-55
2021/12/14 11:25:30;;;;;;;12.53;10.00;;;8.20;99.90;;;;;;5048407;28;20463;-55
2021/12/14 11:28:01;;;;;;;11.20;9.63;;;8.30;99.90;;;;;;5047895;28;20505;-54
2021/12/14 11:30:30;;;;;;;11.47;10.20;;;8.20;99.90;;;;;;5045198;28;22307;-54
2021/12/14 11:33:10;;;;;;;13.20;9.10;;;8.20;99.90;;;;;;5048375;28;21062;-56
2021/12/14 11:35:41;;;;;;;10.17;9.17;;;8.30;99.90;;;;;;5045345;28;20545;-47
2021/12/14 11:38:25;;;;;;;17.33;9.23;;;8.30;99.90;;;;;;5045828;28;20519;-46
2021/12/14 11:40:51;;;;;;;12.57;10.50;;;8.30;99.90;;;;;;5043469;28;20457;-48
2021/12/14 11:43:22;;;;;;;14.30;10.37;;;8.30;99.90;;;;;;5047758;28;20552;-47
2021/12/14 11:45:49;;;;;;;10.43;8.13;;;8.30;99.90;;;;;;5047340;28;20544;-47
2021/12/14 11:48:28;;;;;;;9.97;8.97;;;8.30;99.90;;;;;;5043806;28;21310;-48
2021/12/14 11:50:58;;;;;;;11.20;10.00;;;8.30;99.90;;;;;;5041134;28;20960;-47
2021/12/14 11:53:25;;;;;;;15.30;10.20;;;8.30;99.90;;;;;;5044083;28;20566;-47
2021/12/14 11:55:56;;;;;;;12.83;9.90;;;8.40;99.90;;;;;;5043652;28;20553;-47
2021/12/14 11:58:30;;;;;;;11.50;9.37;;;8.40;99.90;;;;;;5042166;28;20576;-47
2021/12/14 12:01:05;;;;;;;11.17;9.30;;;8.40;99.90;;;;;;5039600;28;20474;-46
2021/12/14 12:03:40;;;;;;;9.80;8.80;;;8.40;99.90;;;;;;5047429;28;21025;-46
2021/12/14 12:06:14;;;;;;;13.73;10.37;;;8.40;99.90;;;;;;5048324;28;20908;-46
2021/12/14 12:11:36;;;;;;;10.87;9.77;;;8.40;99.90;;;;;;5046253;28;20535;-45
2021/12/14 12:14:17;;;;;;;10.50;9.40;;;8.40;99.90;;;;;;5046122;28;20577;-46
2021/12/14 12:16:44;;;;;;;11.87;9.50;;;8.40;99.90;;;;;;5049991;28;20532;-46
2021/12/14 12:19:14;;;;;;;11.00;9.90;;;8.50;99.90;;;;;;5050341;28;20549;-48
2021/12/14 12:21:45;;;;;;;10.47;9.47;;;8.50;99.90;;;;;;5049778;28;20531;-46
2021/12/14 12:24:31;;;;;;;10.43;9.43;;;8.50;99.90;;;;;;5043221;28;21011;-46
2021/12/14 12:27:24;;;;;;;11.10;9.70;;;8.50;99.90;;;;;;5048382;28;20546;-46
2021/12/14 12:30:12;;;;;;;10.37;9.10;;;8.50;99.90;;;;;;5049131;28;20454;-48
2021/12/14 12:32:39;;;;;;;10.77;9.50;;;8.50;99.90;;;;;;5030929;28;20458;-46
2021/12/14 12:35:22;;;;;;;10.30;9.27;;;8.50;99.90;;;;;;5049851;28;20924;-47
2021/12/14 12:37:50;;;;;;;9.67;8.77;;;8.50;99.90;;;;;;5050200;28;20544;-48
2021/12/14 12:40:31;;;;;;;10.47;9.37;;;8.50;99.90;;;;;;5050685;28;20529;-46
2021/12/14 12:43:13;;;;;;;10.67;9.37;;;8.50;99.90;;;;;;5048120;28;21001;-46
2021/12/14 12:45:41;;;;;;;10.07;9.10;;;8.50;99.90;;;;;;5048770;28;20553;-46
2021/12/14 12:48:07;;;;;;;14.70;9.87;;;8.50;99.90;;;;;;5049154;28;20833;-46
2021/12/14 12:50:34;;;;;;;13.87;9.90;;;8.40;99.90;;;;;;5048613;28;20477;-47
2021/12/14 12:53:02;;;;;;;9.67;8.80;;;8.40;99.90;;;;;;5037805;28;20540;-47
2021/12/14 12:55:34;;;;;;;10.67;9.53;;;8.30;89.60;;;;;;5053116;28;20484;-46
2021/12/14 12:58:11;;;;;;;12.10;10.67;;;8.20;58.30;;;;;;5043929;28;20465;-47
2021/12/14 13:00:43;;;;;;;11.10;9.87;;;8.10;33.70;;;;;;5054245;28;20460;-48
2021/12/14 13:03:13;;;;;;;11.30;10.23;;;8.00;99.90;;;;;;5046401;28;20458;-47
2021/12/14 13:05:45;;;;;;;12.17;10.57;;;7.90;99.90;;;;;;5051866;28;20481;-45
2021/12/14 13:08:21;;;;;;;11.40;10.10;;;7.90;99.90;;;;;;5048558;28;20539;-46
2021/12/14 13:10:53;;;;;;;11.77;10.27;;;7.80;99.90;;;;;;5050955;28;20609;-47
2021/12/14 13:13:22;;;;;;;12.33;10.27;;;7.80;99.90;;;;;;5037562;28;20500;-47
2021/12/14 13:15:59;;;;;;;10.23;9.17;;;7.70;99.90;;;;;;5049064;28;20544;-46
2021/12/14 13:18:42;;;;;;;10.90;9.77;;;7.70;99.90;;;;;;5034779;28;20842;-46
2021/12/14 13:21:30;;;;;;;13.80;11.00;;;7.70;95.50;;;;;;5046385;28;20920;-46
2021/12/14 13:24:12;;;;;;;11.50;10.33;;;7.70;82.90;;;;;;5042854;28;20634;-46
2021/12/14 13:26:58;;;;;;;12.03;10.80;;;7.60;66.30;;;;;;5040849;28;21038;-47
2021/12/14 13:29:30;;;;;;;12.67;11.30;;;7.60;58.10;;;;;;5042866;28;20605;-46